createdAt,value
2022-08-31T00:01:37.363Z,42.90
2022-08-31T00:04:03.897Z,42.90
2022-08-31T00:06:30.420Z,42.90
2022-08-31T00:08:56.955Z,43.00
2022-08-31T00:11:23.463Z,43.00
2022-08-31T00:13:49.997Z,43.10
2022-08-31T00:16:18.133Z,42.80
2022-08-31T00:18:44.728Z,42.90
2022-08-31T00:21:11.248Z,43.10
2022-08-31T00:23:37.765Z,43.00
2022-08-31T00:26:04.285Z,43.00
2022-08-31T00:28:30.811Z,43.00
2022-08-31T00:30:57.328Z,42.90
2022-08-31T00:33:28.559Z,43.10
2022-08-31T00:35:55.072Z,42.90
2022-08-31T00:38:21.588Z,43.00
2022-08-31T00:40:48.143Z,42.90
2022-08-31T00:43:14.694Z,43.10
2022-08-31T00:45:41.226Z,43.00
2022-08-31T00:48:07.794Z,42.80
2022-08-31T00:50:34.317Z,43.10
2022-08-31T00:53:00.845Z,43.00
2022-08-31T00:55:27.366Z,42.90
2022-08-31T00:57:53.873Z,42.90
2022-08-31T01:00:20.402Z,42.90
2022-08-31T01:02:46.906Z,43.00
2022-08-31T01:05:13.415Z,43.00
2022-08-31T01:07:39.925Z,43.00
2022-08-31T01:10:06.457Z,42.90
2022-08-31T01:12:32.986Z,42.90
2022-08-31T01:14:59.829Z,42.90
2022-08-31T01:17:26.355Z,43.10
2022-08-31T01:19:58.543Z,43.00
2022-08-31T01:22:25.058Z,42.90
2022-08-31T01:24:51.571Z,42.90
2022-08-31T01:27:18.095Z,42.90
2022-08-31T01:29:44.621Z,43.00
2022-08-31T01:32:11.154Z,43.10
2022-08-31T01:34:37.655Z,42.90
2022-08-31T01:37:04.172Z,42.90
2022-08-31T01:39:30.692Z,43.00
2022-08-31T01:41:57.227Z,43.00
2022-08-31T01:44:23.744Z,43.10
2022-08-31T01:46:50.335Z,43.10
2022-08-31T01:49:22.768Z,43.10
2022-08-31T01:51:49.320Z,43.00
2022-08-31T01:54:15.826Z,43.10
2022-08-31T01:56:42.344Z,43.20
2022-08-31T01:59:08.849Z,43.10
2022-08-31T02:01:40.652Z,43.30
2022-08-31T02:04:07.221Z,43.10
2022-08-31T02:06:33.749Z,43.20
2022-08-31T02:09:00.255Z,43.20
2022-08-31T02:11:26.776Z,43.20
2022-08-31T02:13:53.286Z,43.20
2022-08-31T02:16:19.849Z,43.20
2022-08-31T02:18:46.403Z,43.30
2022-08-31T02:21:12.941Z,43.40
2022-08-31T02:23:39.440Z,43.10
2022-08-31T02:26:05.977Z,43.20
2022-08-31T02:28:32.484Z,43.20
2022-08-31T02:30:59.017Z,43.20
2022-08-31T02:33:25.547Z,43.20
2022-08-31T02:35:53.735Z,43.20
2022-08-31T02:38:20.423Z,43.20
2022-08-31T02:40:48.718Z,43.20
2022-08-31T02:43:17.534Z,43.10
2022-08-31T02:45:53.434Z,43.20
2022-08-31T02:48:20.359Z,43.10
2022-08-31T02:50:47.951Z,43.20
2022-08-31T02:53:14.455Z,43.30
2022-08-31T02:55:40.977Z,43.30
2022-08-31T02:58:07.502Z,43.20
2022-08-31T03:00:34.017Z,43.20
2022-08-31T03:03:00.596Z,43.20
2022-08-31T03:05:27.133Z,43.20
2022-08-31T03:07:53.657Z,43.20
2022-08-31T03:10:20.171Z,43.20
2022-08-31T03:12:46.687Z,43.30
2022-08-31T03:15:13.226Z,43.30
2022-08-31T03:17:39.759Z,43.30
2022-08-31T03:20:06.291Z,43.30
2022-08-31T03:22:32.823Z,43.30
2022-08-31T03:24:59.356Z,43.30
2022-08-31T03:27:25.914Z,43.20
2022-08-31T03:29:52.447Z,43.30
2022-08-31T03:32:18.958Z,43.30
2022-08-31T03:34:45.510Z,43.20
2022-08-31T03:37:12.007Z,43.40
2022-08-31T03:39:38.521Z,43.30
2022-08-31T03:42:05.049Z,43.40
2022-08-31T03:44:31.560Z,43.40
2022-08-31T03:46:58.088Z,43.40
2022-08-31T03:49:25.959Z,43.40
2022-08-31T03:51:52.538Z,43.40
2022-08-31T03:54:19.058Z,43.40
2022-08-31T03:56:45.583Z,43.40
2022-08-31T03:59:12.097Z,43.40
2022-08-31T04:01:38.645Z,43.40
2022-08-31T04:04:05.978Z,43.50
2022-08-31T04:06:32.521Z,43.50
2022-08-31T04:08:59.024Z,43.50
2022-08-31T04:11:44.248Z,43.50
2022-08-31T04:14:12.036Z,43.40
2022-08-31T04:16:41.960Z,43.50
2022-08-31T04:19:08.491Z,43.40
2022-08-31T04:21:35.010Z,43.40
2022-08-31T04:24:01.538Z,43.40
2022-08-31T04:26:28.058Z,43.40
2022-08-31T04:28:54.569Z,43.50
2022-08-31T04:31:21.128Z,43.50
2022-08-31T04:33:47.707Z,43.50
2022-08-31T04:36:14.216Z,43.50
2022-08-31T04:38:40.724Z,43.50
2022-08-31T04:41:07.921Z,43.50
2022-08-31T04:43:34.442Z,43.60
2022-08-31T04:46:00.993Z,43.50
2022-08-31T04:48:27.595Z,43.50
2022-08-31T04:50:54.120Z,43.50
2022-08-31T04:53:20.699Z,43.60
2022-08-31T04:55:47.227Z,43.60
2022-08-31T04:58:13.891Z,43.50
2022-08-31T05:00:40.740Z,43.60
2022-08-31T05:03:07.252Z,43.60
2022-08-31T05:05:33.778Z,43.60
2022-08-31T05:08:00.279Z,43.60
2022-08-31T05:10:26.803Z,43.50
2022-08-31T05:12:53.309Z,43.60
2022-08-31T05:15:19.824Z,43.50
2022-08-31T05:17:46.330Z,43.50
2022-08-31T05:20:12.839Z,43.50
2022-08-31T05:22:39.364Z,43.60
2022-08-31T05:25:05.906Z,43.60
2022-08-31T05:27:32.433Z,43.60
2022-08-31T05:29:58.954Z,43.70
2022-08-31T05:32:25.507Z,43.60
2022-08-31T05:34:52.008Z,43.50
2022-08-31T05:37:18.538Z,43.50
2022-08-31T05:39:45.070Z,43.50
2022-08-31T05:42:11.652Z,43.50
2022-08-31T05:44:38.158Z,43.60
2022-08-31T05:47:04.704Z,43.70
2022-08-31T05:49:32.235Z,43.50
2022-08-31T05:51:59.030Z,43.50
2022-08-31T05:54:25.548Z,43.50
2022-08-31T05:56:52.069Z,43.40
2022-08-31T05:59:18.583Z,43.60
2022-08-31T06:01:45.150Z,43.60
2022-08-31T06:04:11.714Z,43.50
2022-08-31T06:06:38.259Z,43.50
2022-08-31T06:09:04.783Z,43.50
2022-08-31T06:11:31.320Z,43.50
2022-08-31T06:13:57.848Z,43.60
2022-08-31T06:16:24.433Z,43.60
2022-08-31T06:18:51.169Z,43.50
2022-08-31T06:21:22.804Z,43.50
2022-08-31T06:23:49.316Z,43.50
2022-08-31T06:26:15.846Z,43.50
2022-08-31T06:28:42.367Z,43.60
2022-08-31T06:31:08.930Z,43.50
2022-08-31T06:33:35.458Z,43.50
2022-08-31T06:36:01.986Z,43.50
2022-08-31T06:38:32.818Z,43.40
2022-08-31T06:40:59.499Z,43.40
2022-08-31T06:43:26.007Z,43.40
2022-08-31T06:45:52.556Z,43.50
2022-08-31T06:48:19.080Z,43.40
2022-08-31T06:50:45.625Z,43.30
2022-08-31T06:53:12.145Z,43.30
2022-08-31T06:55:38.659Z,43.40
2022-08-31T06:58:05.179Z,43.40
2022-08-31T07:00:31.714Z,43.30
2022-08-31T07:02:58.344Z,43.30
2022-08-31T07:05:25.016Z,43.40
2022-08-31T07:07:51.612Z,43.40
2022-08-31T07:10:18.163Z,43.30
2022-08-31T07:12:44.701Z,43.40
2022-08-31T07:15:11.236Z,43.50
2022-08-31T07:17:37.771Z,43.40
2022-08-31T07:20:04.309Z,43.40
2022-08-31T07:22:30.834Z,43.40
2022-08-31T07:24:57.340Z,43.40
2022-08-31T07:27:23.844Z,43.50
2022-08-31T07:29:50.361Z,43.40
2022-08-31T07:32:16.885Z,43.50
2022-08-31T07:34:43.402Z,43.50
2022-08-31T07:37:09.918Z,43.50
2022-08-31T07:39:36.470Z,43.50
2022-08-31T07:42:02.992Z,43.40
2022-08-31T07:44:29.492Z,43.40
2022-08-31T07:46:56.001Z,43.40
2022-08-31T07:49:22.539Z,43.40
2022-08-31T07:51:49.154Z,43.30
2022-08-31T07:54:15.724Z,43.40
2022-08-31T07:56:42.229Z,43.40
2022-08-31T07:59:11.143Z,43.40
2022-08-31T08:01:37.847Z,43.40
2022-08-31T08:04:05.090Z,43.30
2022-08-31T08:06:32.621Z,43.40
2022-08-31T08:09:22.510Z,43.40
2022-08-31T08:11:46.936Z,43.30
2022-08-31T08:14:14.879Z,43.20
2022-08-31T08:16:41.411Z,43.30
2022-08-31T08:19:07.954Z,43.30
2022-08-31T08:21:34.495Z,43.40
2022-08-31T08:24:01.273Z,43.40
2022-08-31T08:26:27.811Z,43.40
2022-08-31T08:28:54.352Z,43.40
2022-08-31T08:31:20.920Z,43.40
2022-08-31T08:33:47.463Z,43.30
2022-08-31T08:36:13.973Z,43.50
2022-08-31T08:38:40.476Z,43.40
2022-08-31T08:41:06.990Z,43.50
2022-08-31T08:43:33.517Z,43.50
2022-08-31T08:46:10.700Z,43.50
2022-08-31T08:48:46.542Z,43.50
2022-08-31T08:51:22.321Z,43.60
2022-08-31T08:53:48.849Z,43.60
2022-08-31T08:56:32.404Z,43.40
2022-08-31T08:59:00.150Z,43.50
2022-08-31T09:01:28.973Z,43.50
2022-08-31T09:03:55.547Z,43.50
2022-08-31T09:06:22.065Z,43.60
2022-08-31T09:08:48.576Z,43.60
2022-08-31T09:11:15.098Z,43.40
2022-08-31T09:13:41.624Z,43.70
2022-08-31T09:16:08.221Z,43.60
2022-08-31T09:18:34.822Z,43.50
2022-08-31T09:21:01.355Z,43.50
2022-08-31T09:23:27.883Z,43.60
2022-08-31T09:25:54.498Z,43.50
2022-08-31T09:28:21.022Z,43.50
2022-08-31T09:30:47.595Z,43.50
2022-08-31T09:33:14.119Z,43.60
2022-08-31T09:35:40.670Z,43.50
2022-08-31T09:38:07.193Z,43.60
2022-08-31T09:40:33.719Z,43.60
2022-08-31T09:43:00.250Z,43.60
2022-08-31T09:45:26.840Z,43.60
2022-08-31T09:47:54.852Z,43.60
2022-08-31T09:50:21.402Z,43.50
2022-08-31T09:52:48.771Z,43.60
2022-08-31T09:55:15.319Z,43.60
2022-08-31T09:57:41.832Z,43.60
2022-08-31T10:00:08.370Z,43.80
2022-08-31T10:02:34.884Z,43.70
2022-08-31T10:05:01.519Z,43.90
2022-08-31T10:07:28.068Z,43.90
2022-08-31T10:09:57.604Z,43.90
2022-08-31T10:12:24.591Z,44.20
2022-08-31T10:14:51.114Z,44.00
2022-08-31T10:17:17.634Z,44.00
2022-08-31T10:19:44.141Z,43.90
2022-08-31T10:22:10.656Z,44.30
2022-08-31T10:24:37.155Z,44.40
2022-08-31T10:27:03.687Z,44.30
2022-08-31T10:29:30.196Z,44.10
2022-08-31T10:31:56.727Z,44.00
2022-08-31T10:34:23.259Z,44.00
2022-08-31T10:36:49.787Z,44.20
2022-08-31T10:39:16.302Z,44.30
2022-08-31T10:41:42.837Z,44.30
2022-08-31T10:44:09.376Z,44.10
2022-08-31T10:46:35.940Z,44.30
2022-08-31T10:49:04.973Z,44.30
2022-08-31T10:51:31.505Z,44.20
2022-08-31T10:53:58.039Z,44.30
2022-08-31T10:56:24.581Z,44.50
2022-08-31T10:58:51.105Z,44.30
2022-08-31T11:01:17.673Z,44.50
2022-08-31T11:03:44.284Z,44.40
2022-08-31T11:06:10.814Z,44.40
2022-08-31T11:08:37.322Z,44.40
2022-08-31T11:11:03.844Z,44.20
2022-08-31T11:13:30.385Z,44.20
2022-08-31T11:15:56.927Z,44.40
2022-08-31T11:18:23.453Z,44.20
2022-08-31T11:20:50.006Z,44.40
2022-08-31T11:23:16.515Z,44.20
2022-08-31T11:25:43.061Z,44.10
2022-08-31T11:28:09.580Z,44.30
2022-08-31T11:30:39.953Z,44.20
2022-08-31T11:33:08.507Z,44.40
2022-08-31T11:35:35.046Z,44.50
2022-08-31T11:38:07.969Z,44.30
2022-08-31T11:40:38.214Z,44.60
2022-08-31T11:43:04.779Z,44.60
2022-08-31T11:45:31.319Z,44.30
2022-08-31T11:47:58.836Z,44.30
2022-08-31T11:50:25.376Z,44.60
2022-08-31T11:52:51.907Z,44.70
2022-08-31T11:55:18.554Z,44.50
2022-08-31T11:57:45.080Z,44.40
2022-08-31T12:00:11.618Z,44.60
2022-08-31T12:02:38.196Z,44.60
2022-08-31T12:05:04.823Z,44.60
2022-08-31T12:07:31.363Z,44.70
2022-08-31T12:09:57.895Z,44.60
2022-08-31T12:12:24.423Z,44.50
2022-08-31T12:14:50.926Z,44.60
2022-08-31T12:17:17.461Z,44.70
2022-08-31T12:19:44.008Z,44.60
2022-08-31T12:22:10.584Z,44.60
2022-08-31T12:24:37.091Z,44.70
2022-08-31T12:27:04.303Z,44.60
2022-08-31T12:29:30.816Z,44.60
2022-08-31T12:31:57.343Z,44.60
2022-08-31T12:34:24.723Z,44.60
2022-08-31T12:36:51.340Z,44.70
2022-08-31T12:39:17.846Z,44.70
2022-08-31T12:41:44.369Z,44.70
2022-08-31T12:44:14.345Z,44.70
2022-08-31T12:46:41.135Z,44.70
2022-08-31T12:49:07.701Z,44.70
2022-08-31T12:51:34.243Z,44.70
2022-08-31T12:54:00.765Z,44.70
2022-08-31T12:56:27.290Z,44.80
2022-08-31T12:58:59.319Z,44.70
2022-08-31T13:01:25.947Z,44.70
2022-08-31T13:03:54.353Z,44.70
2022-08-31T13:06:21.011Z,44.80
2022-08-31T13:08:47.532Z,44.80
2022-08-31T13:11:14.071Z,44.80
2022-08-31T13:13:40.604Z,44.80
2022-08-31T13:16:07.121Z,44.80
2022-08-31T13:18:33.641Z,44.80
2022-08-31T13:21:00.168Z,44.90
2022-08-31T13:23:26.692Z,44.80
2022-08-31T13:25:53.230Z,44.80
2022-08-31T13:28:19.749Z,44.80
2022-08-31T13:30:50.359Z,44.90
2022-08-31T13:33:22.934Z,44.80
2022-08-31T13:35:49.466Z,44.90
2022-08-31T13:38:15.987Z,44.90
2022-08-31T13:40:42.586Z,44.90
2022-08-31T13:43:09.118Z,44.90
2022-08-31T13:45:35.646Z,45.00
2022-08-31T13:48:02.167Z,45.00
2022-08-31T13:50:28.682Z,45.00
2022-08-31T13:53:16.101Z,45.00
2022-08-31T13:55:41.706Z,45.00
2022-08-31T13:58:08.211Z,45.10
2022-08-31T14:00:34.743Z,45.00
2022-08-31T14:03:05.233Z,45.00
2022-08-31T14:05:31.791Z,45.10
2022-08-31T14:07:58.289Z,45.00
2022-08-31T14:10:24.827Z,45.00
2022-08-31T14:12:51.356Z,45.00
2022-08-31T14:15:17.869Z,45.00
2022-08-31T14:18:23.799Z,45.00
2022-08-31T14:20:30.876Z,45.00
2022-08-31T14:22:57.400Z,45.00
2022-08-31T14:25:23.942Z,45.00
2022-08-31T14:27:50.476Z,45.00
2022-08-31T14:30:17.012Z,44.90
2022-08-31T14:32:43.535Z,44.90
2022-08-31T14:35:11.967Z,45.00
2022-08-31T14:37:38.664Z,44.90
2022-08-31T14:40:07.722Z,44.80
2022-08-31T14:42:34.538Z,44.80
2022-08-31T14:45:01.106Z,44.80
2022-08-31T14:47:27.614Z,44.80
2022-08-31T14:49:54.120Z,44.80
2022-08-31T14:52:20.639Z,44.80
2022-08-31T14:54:47.153Z,44.80
2022-08-31T14:57:13.678Z,44.90
2022-08-31T14:59:40.172Z,44.90
2022-08-31T15:02:07.146Z,44.80
2022-08-31T15:04:33.655Z,44.80
2022-08-31T15:07:02.611Z,44.80
2022-08-31T15:09:33.360Z,44.70
2022-08-31T15:11:59.895Z,44.70
2022-08-31T15:14:26.390Z,44.70
2022-08-31T15:16:52.995Z,44.70
2022-08-31T15:19:19.530Z,44.60
2022-08-31T15:21:50.521Z,44.60
2022-08-31T15:24:18.962Z,44.60
2022-08-31T15:26:45.496Z,44.70
2022-08-31T15:29:12.519Z,44.60
2022-08-31T15:31:43.094Z,44.60
2022-08-31T15:34:10.190Z,44.60
2022-08-31T15:36:36.828Z,44.60
2022-08-31T15:39:03.353Z,44.50
2022-08-31T15:41:29.881Z,44.50
2022-08-31T15:43:56.397Z,44.50
2022-08-31T15:46:22.949Z,44.50
2022-08-31T15:48:49.463Z,44.50
2022-08-31T15:51:16.060Z,44.40
2022-08-31T15:53:42.668Z,44.40
2022-08-31T15:56:09.276Z,44.40
2022-08-31T15:58:35.849Z,44.40
2022-08-31T16:01:05.409Z,44.50
2022-08-31T16:03:35.286Z,44.40
2022-08-31T16:06:02.321Z,44.40
2022-08-31T16:08:28.909Z,44.40
2022-08-31T16:10:55.515Z,44.40
2022-08-31T16:13:22.121Z,44.40
2022-08-31T16:15:48.727Z,44.30
2022-08-31T16:18:15.374Z,44.40
2022-08-31T16:20:41.987Z,44.30
2022-08-31T16:23:08.570Z,44.40
2022-08-31T16:25:47.346Z,44.40
2022-08-31T16:28:14.714Z,44.40
2022-08-31T16:30:41.330Z,44.30
2022-08-31T16:33:07.894Z,44.30
2022-08-31T16:35:34.498Z,44.30
2022-08-31T16:38:01.082Z,44.20
2022-08-31T16:40:27.792Z,44.10
2022-08-31T16:42:54.407Z,43.90
2022-08-31T16:45:20.980Z,43.60
2022-08-31T16:47:47.566Z,43.50
2022-08-31T16:50:14.154Z,43.40
2022-08-31T16:52:40.732Z,43.10
2022-08-31T16:55:07.313Z,43.40
2022-08-31T16:57:34.016Z,43.40
2022-08-31T17:00:00.616Z,43.30
2022-08-31T17:02:27.272Z,43.20
2022-08-31T17:04:54.435Z,43.30
2022-08-31T17:07:21.245Z,43.50
2022-08-31T17:09:47.835Z,43.50
2022-08-31T17:12:14.869Z,43.50
2022-08-31T17:14:41.449Z,43.60
2022-08-31T17:17:08.037Z,43.60
2022-08-31T17:19:34.617Z,43.70
2022-08-31T17:22:01.214Z,43.80
2022-08-31T17:24:27.790Z,43.70
2022-08-31T17:26:54.381Z,43.70
2022-08-31T17:29:20.973Z,43.70
2022-08-31T17:31:47.641Z,43.60
2022-08-31T17:34:14.264Z,43.70
2022-08-31T17:36:40.856Z,43.60
2022-08-31T17:39:07.439Z,43.70
2022-08-31T17:41:34.035Z,43.60
2022-08-31T17:44:00.637Z,43.50
2022-08-31T17:46:27.283Z,43.60
2022-08-31T17:48:54.002Z,43.70
2022-08-31T17:51:20.598Z,43.60
2022-08-31T17:53:47.179Z,43.60
2022-08-31T17:56:13.770Z,43.70
2022-08-31T17:58:40.349Z,43.70
2022-08-31T18:01:07.020Z,43.70
2022-08-31T18:03:33.661Z,43.60
2022-08-31T18:06:00.291Z,43.70
2022-08-31T18:08:26.873Z,43.60
2022-08-31T18:10:53.460Z,43.70
2022-08-31T18:13:20.072Z,43.60
2022-08-31T18:15:46.655Z,43.40
2022-08-31T18:18:13.231Z,43.70
2022-08-31T18:20:39.811Z,43.60
2022-08-31T18:23:07.464Z,43.60
2022-08-31T18:25:36.971Z,43.70
2022-08-31T18:28:05.396Z,43.70
2022-08-31T18:30:31.968Z,43.70
2022-08-31T18:32:58.540Z,43.70
2022-08-31T18:35:25.138Z,43.60
2022-08-31T18:37:51.729Z,43.70
2022-08-31T18:40:18.721Z,43.60
2022-08-31T18:42:47.409Z,43.60
2022-08-31T18:45:14.000Z,43.60
2022-08-31T18:47:40.607Z,43.60
2022-08-31T18:50:07.430Z,43.60
2022-08-31T18:52:34.430Z,43.80
2022-08-31T18:55:01.085Z,43.70
2022-08-31T18:57:27.690Z,43.60
2022-08-31T18:59:54.650Z,43.70
2022-08-31T19:02:21.455Z,43.60
2022-08-31T19:04:48.181Z,43.60
2022-08-31T19:07:14.784Z,43.60
2022-08-31T19:09:41.659Z,43.60
2022-08-31T19:12:08.298Z,43.60
2022-08-31T19:14:34.878Z,43.50
2022-08-31T19:17:05.685Z,43.60
2022-08-31T19:19:32.343Z,43.50
2022-08-31T19:21:58.937Z,43.60
2022-08-31T19:24:25.522Z,43.60
2022-08-31T19:26:52.109Z,43.60
2022-08-31T19:29:23.029Z,43.50
2022-08-31T19:31:49.862Z,43.60
2022-08-31T19:34:16.814Z,43.50
2022-08-31T19:36:43.807Z,43.50
2022-08-31T19:39:10.792Z,43.50
2022-08-31T19:41:37.464Z,43.50
2022-08-31T19:44:08.433Z,43.50
2022-08-31T19:46:35.670Z,43.50
2022-08-31T19:49:02.303Z,43.50
2022-08-31T19:51:28.882Z,43.40
2022-08-31T19:53:55.496Z,43.40
2022-08-31T19:56:22.081Z,43.50
2022-08-31T19:58:48.658Z,43.40
2022-08-31T20:01:15.240Z,43.50
2022-08-31T20:03:42.195Z,43.40
2022-08-31T20:06:09.189Z,43.50
2022-08-31T20:08:35.852Z,43.50
2022-08-31T20:11:02.789Z,43.40
2022-08-31T20:13:29.440Z,43.40
2022-08-31T20:15:56.137Z,43.40
2022-08-31T20:18:23.041Z,43.50
2022-08-31T20:20:49.712Z,43.40
2022-08-31T20:23:16.322Z,43.40
2022-08-31T20:25:42.931Z,43.40
2022-08-31T20:28:10.099Z,43.40
2022-08-31T20:30:36.932Z,43.30
2022-08-31T20:33:03.564Z,43.30
2022-08-31T20:35:30.162Z,43.20
2022-08-31T20:37:56.747Z,43.20
2022-08-31T20:40:23.356Z,43.10
2022-08-31T20:42:49.965Z,43.00
2022-08-31T20:45:16.562Z,43.00
2022-08-31T20:47:43.079Z,43.00
2022-08-31T20:50:09.609Z,43.00
2022-08-31T20:52:36.180Z,43.10
2022-08-31T20:55:02.934Z,42.90
2022-08-31T20:57:29.487Z,42.90
2022-08-31T20:59:56.015Z,42.90
2022-08-31T21:02:22.636Z,42.90
2022-08-31T21:04:49.211Z,42.80
2022-08-31T21:07:15.735Z,42.80
2022-08-31T21:09:42.230Z,42.70
2022-08-31T21:12:08.764Z,42.80
2022-08-31T21:14:35.642Z,42.80
2022-08-31T21:17:02.164Z,42.70
2022-08-31T21:19:28.666Z,42.80
2022-08-31T21:21:55.369Z,42.70
2022-08-31T21:24:21.894Z,42.80
2022-08-31T21:26:48.427Z,42.70
2022-08-31T21:29:14.946Z,42.80
2022-08-31T21:31:43.684Z,42.80
2022-08-31T21:34:15.562Z,42.80
2022-08-31T21:36:42.077Z,42.70
2022-08-31T21:39:08.594Z,42.60
2022-08-31T21:41:35.129Z,42.70
2022-08-31T21:44:01.652Z,42.70
2022-08-31T21:46:28.222Z,42.60
2022-08-31T21:48:54.760Z,42.70
2022-08-31T21:51:21.294Z,42.50
2022-08-31T21:53:47.825Z,42.50
2022-08-31T21:56:14.330Z,42.60
2022-08-31T21:58:40.843Z,42.60
2022-08-31T22:01:07.365Z,42.50
2022-08-31T22:03:33.879Z,42.50
2022-08-31T22:06:00.414Z,42.40
2022-08-31T22:08:26.924Z,42.40
2022-08-31T22:10:53.471Z,42.30
2022-08-31T22:13:20.170Z,42.40
2022-08-31T22:15:46.960Z,42.30
2022-08-31T22:20:59.993Z,42.30
2022-08-31T22:23:26.621Z,42.20
2022-08-31T22:25:53.255Z,42.10
2022-08-31T22:28:19.969Z,42.20
2022-08-31T22:30:46.670Z,42.20
2022-08-31T22:33:13.257Z,42.10
2022-08-31T22:35:39.784Z,42.10
2022-08-31T22:38:06.307Z,42.10
2022-08-31T22:40:32.930Z,42.20
2022-08-31T22:42:59.497Z,42.10
2022-08-31T22:45:32.029Z,42.10
2022-08-31T22:47:58.555Z,42.10
2022-08-31T22:50:25.080Z,42.10
2022-08-31T22:52:53.609Z,42.00
2022-08-31T22:55:20.112Z,42.00
2022-08-31T22:57:46.661Z,42.10
2022-08-31T23:00:13.168Z,42.10
2022-08-31T23:02:39.679Z,42.10
2022-08-31T23:05:06.201Z,42.00
2022-08-31T23:07:32.728Z,42.00
2022-08-31T23:09:59.253Z,42.00
2022-08-31T23:12:25.800Z,42.00
2022-08-31T23:14:52.327Z,42.00
2022-08-31T23:17:18.851Z,42.00
2022-08-31T23:19:45.367Z,41.90
2022-08-31T23:22:11.894Z,41.90
2022-08-31T23:24:38.404Z,42.00
2022-08-31T23:27:04.995Z,41.80
2022-08-31T23:29:31.571Z,41.80
2022-08-31T23:31:58.106Z,41.80
2022-08-31T23:34:24.629Z,41.80
2022-08-31T23:36:51.143Z,41.80
2022-08-31T23:39:17.675Z,41.80
2022-08-31T23:41:44.274Z,41.80
2022-08-31T23:44:10.975Z,41.70
2022-08-31T23:46:37.556Z,41.60
2022-08-31T23:49:04.107Z,41.80
2022-08-31T23:51:30.618Z,41.70
2022-08-31T23:53:57.122Z,41.80
2022-08-31T23:56:23.652Z,41.80
2022-08-31T23:58:50.165Z,41.80
